Time;durP1;ratioP1;P1;durP2;ratioP2;P2;SDS_P1;SDS_P2;PMS_P1;PMS_P2;Temp;Humidity;BMP_temperature;BMP_pressure;BME280_temperature;BME280_humidity;BME280_pressure;Samples;Min_cycle;Max_cycle;Signal;HPM_P1;HPM_P2
2024/04/03 00:02:24;;;;;;;4.07;0.50;;;;;;;14.43;39.66;98204.13;5093630;28;20024;-47
2024/04/03 00:04:50;;;;;;;6.45;1.10;;;;;;;14.36;39.49;98172.56;5093500;28;20547;-46
2024/04/03 00:07:16;;;;;;;3.40;0.65;;;;;;;14.28;40.15;98204.63;5091762;28;20028;-46
2024/04/03 00:09:41;;;;;;;2.97;0.88;;;;;;;14.22;40.08;98188.94;5093569;28;20024;-47
2024/04/03 00:12:07;;;;;;;3.30;0.98;;;;;;;14.13;40.59;98201.72;5093478;28;20103;-47
2024/04/03 00:14:33;;;;;;;6.95;1.17;;;;;;;14.02;41.17;98203.34;5093526;28;20028;-46
2024/04/03 00:16:59;;;;;;;4.80;0.70;;;;;;;13.97;41.48;98227.81;5092134;28;20390;-47
2024/04/03 00:19:25;;;;;;;5.93;1.10;;;;;;;14.02;41.21;98197.28;5093398;28;20024;-47
2024/04/03 00:21:50;;;;;;;3.35;0.88;;;;;;;14.03;41.00;98215.53;5093269;28;20494;-47
2024/04/03 00:24:17;;;;;;;4.43;0.68;;;;;;;13.98;40.37;98204.84;5093319;28;20034;-46
2024/04/03 00:26:42;;;;;;;1.88;0.60;;;;;;;13.94;41.12;98212.47;5093258;28;20045;-47
2024/04/03 00:29:08;;;;;;;3.38;0.63;;;;;;;13.84;41.22;98222.78;5091860;28;20028;-47
2024/04/03 00:31:35;;;;;;;1.98;0.50;;;;;;;13.71;41.59;98215.94;5093108;28;20020;-47
2024/04/03 00:34:02;;;;;;;3.10;0.68;;;;;;;13.73;42.25;98213.06;5075157;28;20020;-47
2024/04/03 00:36:27;;;;;;;3.67;1.05;;;;;;;13.67;42.75;98222.72;5092965;28;20067;-47
2024/04/03 00:38:54;;;;;;;2.90;0.80;;;;;;;13.61;42.78;98205.19;5092985;28;20058;-47
2024/04/03 00:41:20;;;;;;;5.55;0.95;;;;;;;13.56;43.78;98228.78;5091544;28;20028;-46
2024/04/03 00:43:45;;;;;;;2.10;0.70;;;;;;;13.70;43.80;98218.78;5092717;28;20043;-47
2024/04/03 00:46:12;;;;;;;5.30;0.85;;;;;;;13.81;43.64;98225.09;5092869;28;20036;-47
2024/04/03 00:48:37;;;;;;;3.10;1.10;;;;;;;13.89;43.73;98191.25;5074725;28;20028;-47
2024/04/03 00:51:03;;;;;;;3.20;0.75;;;;;;;13.99;43.66;98183.53;5092832;28;20024;-47
2024/04/03 00:53:31;;;;;;;4.15;0.80;;;;;;;14.07;43.60;98192.91;5091397;28;20028;-47
2024/04/03 00:55:56;;;;;;;3.63;1.20;;;;;;;14.18;42.78;98141.94;5091381;28;20066;-46
2024/04/03 00:58:22;;;;;;;4.57;0.75;;;;;;;14.15;42.42;98166.16;5092747;28;20435;-47
2024/04/03 01:00:48;;;;;;;4.25;1.10;;;;;;;14.09;42.45;98196.13;5091168;28;20036;-47
2024/04/03 01:03:13;;;;;;;3.03;1.23;;;;;;;13.94;42.92;98179.97;5092497;28;20024;-47
2024/04/03 01:05:39;;;;;;;5.45;1.13;;;;;;;13.87;43.47;98171.41;5092494;28;20024;-47
2024/04/03 01:08:05;;;;;;;1.92;0.68;;;;;;;13.91;43.62;98204.22;5092457;28;20130;-47
2024/04/03 01:10:31;;;;;;;5.35;1.20;;;;;;;13.96;43.51;98193.75;5092477;28;20034;-47
2024/04/03 01:13:01;;;;;;;2.53;0.50;;;;;;;14.04;43.13;98177.53;5092673;28;20033;-47
2024/04/03 01:15:27;;;;;;;2.97;0.93;;;;;;;14.02;43.61;98184.09;5092612;28;20055;-47
2024/04/03 01:17:52;;;;;;;4.60;0.90;;;;;;;14.14;43.44;98184.84;5092328;28;20032;-47
2024/04/03 01:20:18;;;;;;;1.65;0.90;;;;;;;14.25;43.09;98191.13;5090885;28;20032;-47
2024/04/03 01:22:44;;;;;;;5.60;1.08;;;;;;;14.31;42.88;98193.63;5092224;28;20031;-47
2024/04/03 01:25:10;;;;;;;3.67;0.80;;;;;;;14.43;42.11;98175.09;5090952;28;20055;-47
2024/04/03 01:27:35;;;;;;;1.27;0.52;;;;;;;14.57;40.49;98167.69;5090883;28;20471;-47
2024/04/03 01:30:02;;;;;;;2.78;0.70;;;;;;;14.60;40.28;98177.78;5092137;28;20046;-47
2024/04/03 01:32:28;;;;;;;2.22;0.60;;;;;;;14.56;40.93;98180.09;5092094;28;20027;-47
2024/04/03 01:34:54;;;;;;;1.60;0.68;;;;;;;14.58;41.73;98175.38;5090775;28;20031;-47
2024/04/03 01:37:20;;;;;;;3.38;0.77;;;;;;;14.46;42.56;98184.38;5091936;28;20040;-47
2024/04/03 01:39:49;;;;;;;4.20;0.90;;;;;;;14.38;42.34;98169.72;5090696;28;20462;-47
2024/04/03 01:42:16;;;;;;;2.10;1.48;;;;;;;14.29;42.97;98176.44;5091888;28;20062;-47
2024/04/03 01:44:42;;;;;;;2.80;0.93;;;;;;;14.15;43.20;98189.91;5091602;28;20047;-47
2024/04/03 01:47:07;;;;;;;3.78;1.15;;;;;;;14.08;44.37;98176.03;5090561;28;20046;-47
2024/04/03 01:49:33;;;;;;;7.20;1.25;;;;;;;14.04;45.25;98161.72;5091931;28;20020;-47
2024/04/03 01:51:59;;;;;;;7.43;1.30;;;;;;;14.20;45.48;98170.72;5091894;28;20099;-47
2024/04/03 01:54:26;;;;;;;2.63;0.77;;;;;;;14.45;44.29;98173.00;5091859;28;20039;-47
2024/04/03 01:56:53;;;;;;;2.70;0.70;;;;;;;14.48;44.09;98177.00;5091716;28;20028;-47
2024/04/03 01:59:18;;;;;;;5.20;1.80;;;;;;;14.54;44.12;98176.06;5091808;28;20024;-47
2024/04/03 02:01:44;;;;;;;5.30;1.38;;;;;;;14.49;44.29;98166.22;5090405;28;20038;-46
2024/04/03 02:04:09;;;;;;;5.18;0.80;;;;;;;14.50;44.46;98162.53;5091753;28;20051;-47
2024/04/03 02:06:35;;;;;;;5.10;1.00;;;;;;;14.42;44.25;98152.34;5091734;28;20043;-47
2024/04/03 02:09:01;;;;;;;4.55;1.00;;;;;;;14.19;44.88;98188.38;5091730;28;20401;-47
2024/04/03 02:11:26;;;;;;;3.05;0.68;;;;;;;14.07;45.10;98198.19;5091910;28;20024;-47
2024/04/03 02:13:52;;;;;;;2.60;1.10;;;;;;;14.04;45.70;98168.81;5091751;28;20035;-47
2024/04/03 02:16:18;;;;;;;3.67;0.60;;;;;;;14.04;45.29;98177.53;5090306;28;20031;-47
2024/04/03 02:18:43;;;;;;;2.67;0.82;;;;;;;13.97;45.87;98171.63;5091627;28;20096;-47
2024/04/03 02:21:09;;;;;;;4.60;3.08;;;;;;;14.03;46.82;98175.16;5091569;28;20485;-47
2024/04/03 02:23:35;;;;;;;7.05;2.58;;;;;;;14.15;45.64;98174.06;5091581;28;20103;-47
2024/04/03 02:26:00;;;;;;;4.30;1.60;;;;;;;14.10;45.57;98189.00;5091554;28;20024;-47
2024/04/03 02:28:26;;;;;;;6.00;1.00;;;;;;;13.95;46.08;98182.41;5090530;28;20118;-47
2024/04/03 02:31:01;;;;;;;5.35;1.63;;;;;;;13.96;46.40;98180.56;5095487;28;20028;-47
2024/04/03 02:33:27;;;;;;;;;;;;;;;13.97;46.52;98208.56;5095896;28;20490;-47
2024/04/03 02:35:54;;;;;;;3.80;1.10;;;;;;;14.02;47.48;98192.00;5095417;28;19923;-47
2024/04/03 02:38:20;;;;;;;4.13;1.05;;;;;;;14.07;46.73;98216.66;5093986;28;20032;-47
2024/04/03 02:40:45;;;;;;;4.45;0.80;;;;;;;14.11;46.72;98212.50;5095178;28;20020;-47
2024/04/03 02:43:11;;;;;;;4.80;1.00;;;;;;;14.23;46.85;98206.41;5095285;28;20016;-47
2024/04/03 02:45:37;;;;;;;3.78;0.85;;;;;;;14.29;46.82;98194.91;5095000;28;20083;-47
2024/04/03 02:48:02;;;;;;;6.15;1.00;;;;;;;14.28;46.05;98206.47;5093859;28;20024;-47
2024/04/03 02:50:28;;;;;;;4.97;1.13;;;;;;;14.23;47.14;98201.13;5093803;28;20496;-47
2024/04/03 02:52:54;;;;;;;2.10;0.77;;;;;;;14.26;46.68;98204.06;5095102;28;20051;-47
2024/04/03 02:55:19;;;;;;;3.90;1.60;;;;;;;14.31;46.54;98190.19;5095001;28;20027;-47
2024/04/03 02:57:45;;;;;;;5.57;1.13;;;;;;;14.34;46.93;98189.69;5094987;28;20417;-47
2024/04/03 03:00:11;;;;;;;2.97;0.98;;;;;;;14.29;49.30;98206.25;5094883;28;20499;-47
2024/04/03 03:02:37;;;;;;;4.13;1.63;;;;;;;14.18;48.81;98200.00;5093518;28;20051;-47
2024/04/03 03:05:03;;;;;;;3.08;0.82;;;;;;;14.22;48.18;98199.50;5094807;28;20481;-47
2024/04/03 03:07:28;;;;;;;14.60;8.63;;;;;;;14.14;48.02;98195.41;5094760;28;20020;-46
2024/04/03 03:09:54;;;;;;;8.65;3.85;;;;;;;14.14;47.07;98209.41;5094755;28;20393;-47
2024/04/03 03:12:20;;;;;;;15.63;11.48;;;;;;;14.15;46.51;98208.38;5094644;28;20019;-47
2024/04/03 03:14:46;;;;;;;4.40;2.25;;;;;;;14.06;46.67;98209.75;5094679;28;20028;-47
2024/04/03 03:17:11;;;;;;;3.78;1.30;;;;;;;13.95;46.84;98206.13;5093222;28;20024;-47
2024/04/03 03:19:37;;;;;;;10.75;5.00;;;;;;;13.92;47.74;98200.53;5093231;28;20032;-47
2024/04/03 03:22:03;;;;;;;5.60;3.47;;;;;;;13.93;49.09;98200.28;5093084;28;20031;-47
2024/04/03 03:24:28;;;;;;;13.40;8.38;;;;;;;13.81;50.83;98209.28;5094531;28;20024;-47
2024/04/03 03:26:54;;;;;;;4.15;1.73;;;;;;;13.61;52.59;98207.81;5093104;28;20034;-47
2024/04/03 03:29:20;;;;;;;8.40;1.52;;;;;;;13.38;53.50;98209.44;5094323;28;20024;-46
2024/04/03 03:31:45;;;;;;;3.80;1.30;;;;;;;13.18;55.38;98203.69;5094302;28;20102;-46
2024/04/03 03:34:11;;;;;;;4.38;1.40;;;;;;;13.06;57.47;98201.06;5094292;28;20445;-47
2024/04/03 03:36:37;;;;;;;2.20;0.90;;;;;;;12.97;58.03;98197.94;5094255;28;20500;-46
2024/04/03 03:39:02;;;;;;;2.05;0.88;;;;;;;12.76;60.76;98201.13;5094180;28;20031;-46
2024/04/03 03:41:28;;;;;;;2.83;0.93;;;;;;;12.55;62.45;98205.06;5092928;28;20024;-46
2024/04/03 03:43:54;;;;;;;3.00;1.02;;;;;;;12.44;62.37;98201.38;5092604;28;20059;-46
2024/04/03 03:46:20;;;;;;;7.00;3.70;;;;;;;12.14;65.28;98204.00;5092741;28;20024;-47
2024/04/03 03:54:15;;;;;;;5.32;1.25;;;;;;;11.91;69.95;98204.69;5093901;28;20035;-48
2024/04/03 03:56:41;;;;;;;7.22;0.95;;;;;;;11.83;70.24;98207.59;5093865;28;20028;-48
2024/04/03 03:59:07;;;;;;;11.13;9.40;;;;;;;11.87;73.11;98204.31;5093776;28;20107;-48
2024/04/03 04:01:32;;;;;;;5.82;2.30;;;;;;;11.94;75.16;98212.16;5093618;28;20032;-47
2024/04/03 04:03:58;;;;;;;5.53;0.90;;;;;;;12.05;77.20;98215.84;5093735;28;20028;-48
2024/04/03 04:06:24;;;;;;;5.68;1.77;;;;;;;12.02;78.76;98219.72;5092318;28;20035;-48
2024/04/03 04:08:50;;;;;;;3.45;1.10;;;;;;;11.88;77.69;98226.16;5093626;28;20531;-48
2024/04/03 04:11:15;;;;;;;6.28;1.13;;;;;;;11.83;80.64;98236.50;5093440;28;20024;-48
2024/04/03 04:13:41;;;;;;;5.38;1.10;;;;;;;11.72;80.39;98233.59;5092251;28;20028;-48
2024/04/03 04:16:07;;;;;;;3.67;1.15;;;;;;;11.66;80.42;98234.47;5093464;28;20051;-48
2024/04/03 04:18:32;;;;;;;3.88;1.17;;;;;;;11.60;82.26;98237.97;5093444;28;20123;-48
2024/04/03 04:20:58;;;;;;;3.05;0.70;;;;;;;11.58;84.56;98225.03;5093306;28;20107;-48
2024/04/03 04:23:27;;;;;;;3.13;0.93;;;;;;;11.54;83.71;98230.94;5093385;28;20036;-48
2024/04/03 04:26:01;;;;;;;6.68;1.33;;;;;;;11.50;85.94;98227.94;5093344;28;20028;-48
2024/04/03 04:28:28;;;;;;;6.28;0.90;;;;;;;11.58;87.28;98229.50;5093260;28;20027;-48
2024/04/03 04:31:01;;;;;;;4.35;1.35;;;;;;;11.59;86.21;98231.13;5093163;28;20035;-47
2024/04/03 04:33:32;;;;;;;3.97;1.10;;;;;;;11.48;86.53;98229.19;5093070;28;20028;-48
2024/04/03 04:35:59;;;;;;;7.28;1.77;;;;;;;11.46;89.03;98231.22;5093037;28;20028;-47
2024/04/03 04:38:26;;;;;;;6.35;1.95;;;;;;;11.47;91.03;98230.19;5093096;28;20135;-45
2024/04/03 04:40:52;;;;;;;12.93;2.40;;;;;;;11.46;91.50;98228.59;5091592;28;20131;-45
2024/04/03 04:43:18;;;;;;;24.70;22.10;;;;;;;11.47;92.79;98222.31;5092969;28;20107;-45
2024/04/03 04:45:44;;;;;;;27.27;7.82;;;;;;;11.38;93.13;98219.97;5092769;28;20066;-45
2024/04/03 04:48:09;;;;;;;5.55;1.63;;;;;;;11.29;91.05;98220.47;5092891;28;20030;-46
2024/04/03 04:50:35;;;;;;;7.82;2.72;;;;;;;11.14;89.91;98221.59;5092811;28;20531;-45
2024/04/03 04:53:01;;;;;;;7.22;1.08;;;;;;;11.10;91.75;98212.53;5092501;28;20398;-45
2024/04/03 04:55:26;;;;;;;6.20;1.55;;;;;;;11.03;90.74;98209.19;5092766;28;20397;-45
2024/04/03 04:57:52;;;;;;;7.13;2.70;;;;;;;11.06;91.38;98189.56;5092694;28;20028;-45
2024/04/03 05:00:18;;;;;;;6.80;2.00;;;;;;;10.97;94.90;98220.53;5091315;28;20107;-45
2024/04/03 05:02:43;;;;;;;7.82;3.35;;;;;;;10.83;96.85;98196.22;5092527;28;20516;-45
2024/04/03 05:05:09;;;;;;;4.20;2.22;;;;;;;10.76;97.86;98211.19;5091246;28;20028;-45
2024/04/03 05:07:35;;;;;;;3.97;2.10;;;;;;;10.79;95.09;98208.97;5091268;28;20093;-45
2024/04/03 05:10:00;;;;;;;5.28;1.60;;;;;;;10.77;96.11;98204.94;5092538;28;20024;-45
2024/04/03 05:12:26;;;;;;;11.55;9.57;;;;;;;10.76;96.96;98208.56;5092521;28;20501;-45
2024/04/03 05:14:52;;;;;;;2.53;1.42;;;;;;;10.82;97.13;98197.22;5091207;28;20027;-45
2024/04/03 05:17:18;;;;;;;11.27;5.65;;;;;;;10.94;98.81;98208.63;5091025;28;20032;-46
2024/04/03 05:19:44;;;;;;;4.60;1.58;;;;;;;11.17;99.95;98197.53;5092315;28;20393;-45
2024/04/03 05:22:12;;;;;;;5.03;2.53;;;;;;;11.25;96.71;98199.09;5092218;28;20031;-46
2024/04/03 05:24:38;;;;;;;3.83;1.40;;;;;;;11.28;95.09;98218.88;5090991;28;20039;-46
2024/04/03 05:27:05;;;;;;;3.15;0.70;;;;;;;11.27;93.45;98225.94;5092221;28;20398;-46
2024/04/03 05:29:30;;;;;;;6.90;1.02;;;;;;;11.37;91.89;98197.34;5092211;28;20026;-46
2024/04/03 05:31:56;;;;;;;3.45;1.20;;;;;;;11.43;93.69;98210.63;5092171;28;20024;-46
2024/04/03 05:34:22;;;;;;;15.43;2.35;;;;;;;11.59;93.38;98199.56;5092152;28;20016;-46
2024/04/03 05:36:47;;;;;;;8.63;3.42;;;;;;;11.68;89.69;98219.28;5092050;28;20397;-47
2024/04/03 05:39:13;;;;;;;5.10;1.85;;;;;;;11.78;90.76;98214.31;5090767;28;20028;-47
2024/04/03 05:41:39;;;;;;;8.15;2.25;;;;;;;11.85;85.19;98197.66;5091940;28;20043;-47
2024/04/03 05:44:04;;;;;;;3.90;1.08;;;;;;;11.86;87.23;98218.47;5091756;28;20386;-47
2024/04/03 05:46:30;;;;;;;5.28;1.70;;;;;;;11.80;89.17;98211.47;5091999;28;20034;-47
2024/04/03 05:48:56;;;;;;;6.25;1.63;;;;;;;11.79;87.12;98210.66;5091926;28;20024;-47
2024/04/03 05:51:21;;;;;;;4.80;1.50;;;;;;;11.92;89.59;98177.38;5091950;28;20023;-47
2024/04/03 05:53:47;;;;;;;3.33;1.08;;;;;;;12.01;89.69;98210.22;5073860;28;20065;-47
2024/04/03 05:56:13;;;;;;;4.38;1.42;;;;;;;12.11;85.72;98212.34;5091836;28;20031;-47
2024/04/03 05:58:39;;;;;;;7.68;1.50;;;;;;;12.27;89.07;98216.97;5090562;28;20059;-47
2024/04/03 06:01:07;;;;;;;7.15;4.22;;;;;;;12.36;90.83;98220.13;5091647;28;20032;-47
2024/04/03 06:03:32;;;;;;;8.02;5.22;;;;;;;12.31;91.65;98222.59;5092167;28;20500;-47
2024/04/03 06:05:59;;;;;;;10.35;4.43;;;;;;;12.24;93.25;98229.78;5095989;28;20027;-46
2024/04/03 06:08:26;;;;;;;5.05;1.70;;;;;;;12.17;94.27;98233.31;5094625;28;20031;-46
2024/04/03 06:10:52;;;;;;;3.00;1.05;;;;;;;12.04;90.74;98230.84;5095872;28;20395;-47
2024/04/03 06:13:18;;;;;;;6.45;1.90;;;;;;;12.05;90.96;98242.94;5095847;28;20031;-47
2024/04/03 06:15:45;;;;;;;2.25;0.93;;;;;;;12.13;92.27;98244.47;5095873;28;20089;-47
2024/04/03 06:18:11;;;;;;;4.63;2.10;;;;;;;12.39;91.18;98245.97;5095732;28;20024;-47
2024/04/03 06:20:37;;;;;;;5.80;1.25;;;;;;;12.67;89.76;98252.50;5077522;28;20454;-47
2024/04/03 06:23:03;;;;;;;7.03;2.03;;;;;;;12.81;89.89;98258.38;5095969;28;20047;-47
2024/04/03 06:25:29;;;;;;;6.00;2.13;;;;;;;12.92;89.50;98266.31;5095598;28;20020;-47
2024/04/03 06:27:54;;;;;;;6.82;2.17;;;;;;;12.97;89.29;98255.09;5095532;28;20028;-48
2024/04/03 06:30:21;;;;;;;6.80;1.80;;;;;;;12.99;88.10;98253.81;5094239;28;20066;-47
2024/04/03 06:32:47;;;;;;;15.68;13.23;;;;;;;12.95;87.55;98265.03;5095786;28;20097;-47
2024/04/03 06:35:13;;;;;;;6.20;4.45;;;;;;;12.99;86.65;98264.34;5095615;28;20485;-47
2024/04/03 06:37:40;;;;;;;6.30;3.72;;;;;;;13.12;85.77;98267.81;5094092;28;20031;-47
2024/04/03 06:40:08;;;;;;;4.22;1.92;;;;;;;13.26;85.11;98263.97;5095580;28;20051;-47
2024/04/03 06:42:34;;;;;;;8.55;4.30;;;;;;;13.38;84.72;98263.97;5095130;28;20039;-47
2024/04/03 06:44:59;;;;;;;4.43;2.55;;;;;;;13.51;78.62;98265.59;5093755;28;20052;-47
2024/04/03 06:47:26;;;;;;;6.60;4.00;;;;;;;13.57;82.79;98277.88;5095277;28;20413;-47
2024/04/03 06:49:54;;;;;;;6.80;1.65;;;;;;;13.66;80.62;98286.22;5095137;28;20035;-47
2024/04/03 06:52:20;;;;;;;5.07;1.40;;;;;;;13.70;82.56;98271.53;5095348;28;20371;-47
2024/04/03 06:54:46;;;;;;;4.93;1.20;;;;;;;13.75;80.12;98258.47;5095095;28;20073;-47
2024/04/03 06:57:13;;;;;;;4.05;1.38;;;;;;;13.85;82.03;98269.25;5094991;28;20035;-47
2024/04/03 06:59:39;;;;;;;5.28;1.10;;;;;;;13.98;78.73;98265.53;5095238;28;20397;-47
2024/04/03 07:02:05;;;;;;;3.22;2.35;;;;;;;14.12;82.67;98274.78;5094848;28;20028;-47
2024/04/03 07:04:31;;;;;;;8.27;4.20;;;;;;;14.22;79.63;98278.69;5094834;28;20032;-47
2024/04/03 07:06:56;;;;;;;6.97;2.30;;;;;;;14.40;81.27;98270.59;5094813;28;20074;-47
2024/04/03 07:09:22;;;;;;;5.78;2.00;;;;;;;14.46;77.57;98268.84;5094795;28;20379;-47
2024/04/03 07:11:48;;;;;;;8.45;2.13;;;;;;;14.48;76.55;98262.28;5094731;28;20035;-47
2024/04/03 07:14:13;;;;;;;5.55;2.47;;;;;;;14.46;71.90;98264.38;5094633;28;20062;-47
2024/04/03 07:16:39;;;;;;;4.20;1.52;;;;;;;14.44;65.60;98255.09;5093303;28;20066;-47
2024/04/03 07:19:04;;;;;;;4.95;2.28;;;;;;;14.33;69.29;98257.53;5093301;28;20084;-47
2024/04/03 07:21:30;;;;;;;7.75;3.58;;;;;;;14.25;71.03;98262.41;5094474;28;20032;-47
2024/04/03 07:23:56;;;;;;;2.78;1.83;;;;;;;14.29;68.35;98280.16;5094802;28;20035;-47
2024/04/03 07:26:23;;;;;;;3.25;1.98;;;;;;;14.30;68.79;98263.28;5094447;28;20031;-47
2024/04/03 07:28:49;;;;;;;3.53;1.92;;;;;;;14.41;71.04;98272.22;5094625;28;20047;-47
2024/04/03 07:31:15;;;;;;;1.80;1.00;;;;;;;14.49;67.55;98245.44;5093099;28;20024;-47
2024/04/03 07:33:41;;;;;;;6.82;1.80;;;;;;;14.41;63.58;98240.53;5093052;28;20024;-47
2024/04/03 07:36:07;;;;;;;5.50;1.63;;;;;;;14.29;64.02;98280.16;5094234;28;20039;-47
2024/04/03 07:38:33;;;;;;;10.27;4.03;;;;;;;14.24;65.69;98285.31;5092966;28;20039;-47
2024/04/03 07:40:59;;;;;;;5.88;2.63;;;;;;;14.37;67.55;98297.47;5092803;28;20020;-47
2024/04/03 07:43:25;;;;;;;7.57;2.50;;;;;;;14.42;64.30;98280.94;5094403;28;20039;-47
2024/04/03 07:45:58;;;;;;;8.32;2.80;;;;;;;14.29;65.34;98332.97;5093956;28;20044;-47
2024/04/03 07:48:24;;;;;;;8.05;2.15;;;;;;;14.16;66.59;98320.00;5094034;28;20074;-47
2024/04/03 07:50:59;;;;;;;7.72;2.83;;;;;;;14.07;69.24;98303.75;5093019;28;20030;-47
2024/04/03 07:53:24;;;;;;;;;;;;;;;14.09;72.17;98314.84;5094444;28;20026;-47
2024/04/03 07:55:50;;;;;;;;;;;;;;;13.96;72.66;98315.09;5094309;28;19994;-47
2024/04/03 07:58:16;;;;;;;4.53;2.07;;;;;;;13.66;72.96;98307.31;5093879;28;19916;-46
2024/04/03 08:00:41;;;;;;;7.95;2.88;;;;;;;13.37;73.99;98305.34;5093773;28;20027;-47
2024/04/03 08:03:07;;;;;;;11.82;7.75;;;;;;;13.23;74.73;98318.94;5093664;28;20513;-47
2024/04/03 08:05:33;;;;;;;6.90;4.43;;;;;;;13.29;73.37;98302.22;5093762;28;20103;-46
2024/04/03 08:07:58;;;;;;;5.20;0.88;;;;;;;13.29;74.02;98320.66;5093641;28;20035;-47
2024/04/03 08:10:26;;;;;;;5.15;1.33;;;;;;;13.21;73.35;98321.00;5093688;28;20103;-46
2024/04/03 08:12:53;;;;;;;6.82;1.90;;;;;;;13.34;74.27;98281.28;5093584;28;20027;-47
2024/04/03 08:15:19;;;;;;;5.65;1.17;;;;;;;13.49;73.94;98344.91;5093561;28;20513;-47
2024/04/03 08:17:45;;;;;;;5.55;1.98;;;;;;;13.46;75.20;98342.75;5093484;28;20054;-47
2024/04/03 08:20:10;;;;;;;3.50;1.95;;;;;;;13.48;72.74;98345.13;5093670;28;20095;-47
2024/04/03 08:22:37;;;;;;;7.40;3.28;;;;;;;13.48;75.03;98339.84;5093355;28;20389;-47
2024/04/03 08:25:03;;;;;;;4.90;1.50;;;;;;;13.47;74.71;98356.72;5093242;28;20028;-47
2024/04/03 08:27:33;;;;;;;11.82;6.35;;;;;;;13.53;75.88;98356.59;5091370;28;20024;-47
2024/04/03 08:30:01;;;;;;;5.13;2.55;;;;;;;13.46;76.14;98358.56;5093188;28;20028;-46
2024/04/03 08:32:26;;;;;;;2.85;2.05;;;;;;;13.37;76.25;98346.72;5093183;28;20016;-46
2024/04/03 08:34:52;;;;;;;6.25;3.13;;;;;;;13.28;76.31;98361.22;5093120;28;20024;-46
2024/04/03 08:37:19;;;;;;;11.52;7.93;;;;;;;13.17;77.63;98358.31;5093040;28;20085;-47
2024/04/03 08:39:46;;;;;;;10.00;7.65;;;;;;;13.10;77.73;98347.09;5093004;28;20560;-47
2024/04/03 08:42:12;;;;;;;14.77;11.75;;;;;;;12.96;78.51;98348.31;5092852;28;20554;-47
2024/04/03 08:44:38;;;;;;;6.30;4.30;;;;;;;13.11;78.65;98351.31;5092803;28;20044;-47
2024/04/03 08:47:04;;;;;;;12.18;9.50;;;;;;;13.34;78.34;98347.16;5091597;28;20381;-47
2024/04/03 08:49:35;;;;;;;3.63;2.58;;;;;;;13.52;75.55;98367.38;5092917;28;20489;-47
2024/04/03 08:52:10;;;;;;;10.00;6.90;;;;;;;13.77;75.77;98380.38;5092871;28;20397;-47
2024/04/03 08:54:40;;;;;;;12.57;9.55;;;;;;;14.12;72.10;98363.72;5092796;28;20607;-47
2024/04/03 08:57:07;;;;;;;13.93;12.50;;;;;;;14.35;68.82;98355.78;5092680;28;20042;-47
2024/04/03 08:59:38;;;;;;;11.18;6.95;;;;;;;14.72;71.18;98359.97;5092919;28;20032;-47
2024/04/03 09:02:05;;;;;;;12.88;6.00;;;;;;;15.07;69.64;98357.19;5092506;28;20628;-47
2024/04/03 09:04:31;;;;;;;7.57;3.33;;;;;;;14.99;65.41;98362.84;5092553;28;20063;-47
2024/04/03 09:06:57;;;;;;;9.07;8.27;;;;;;;14.78;66.08;98374.88;5091214;28;20024;-47
2024/04/03 09:09:28;;;;;;;6.72;4.53;;;;;;;14.70;65.40;98359.41;5091191;28;20028;-47
2024/04/03 09:12:05;;;;;;;4.70;3.22;;;;;;;14.65;67.04;98386.50;5092458;28;20481;-47
2024/04/03 09:14:31;;;;;;;4.30;2.38;;;;;;;14.55;66.16;98405.56;5092480;28;20031;-47
2024/04/03 09:17:06;;;;;;;3.72;1.23;;;;;;;14.41;67.78;98413.94;5092376;28;20028;-47
2024/04/03 09:19:33;;;;;;;11.10;4.70;;;;;;;14.10;70.29;98382.41;5091105;28;20023;-46
2024/04/03 09:22:00;;;;;;;14.82;4.75;;;;;;;13.82;72.15;98374.41;5092167;28;20039;-46
2024/04/03 09:24:26;;;;;;;9.82;6.30;;;;;;;13.48;75.72;98379.41;5092276;28;20064;-45
2024/04/03 09:26:56;;;;;;;14.75;12.45;;;;;;;13.35;75.71;98372.50;5092219;28;20040;-45
2024/04/03 09:29:23;;;;;;;20.70;17.25;;;;;;;13.20;78.24;98388.72;5092196;28;20085;-45
2024/04/03 09:31:50;;;;;;;7.35;2.05;;;;;;;13.11;77.38;98392.69;5092404;28;20046;-46
2024/04/03 09:34:16;;;;;;;7.07;3.92;;;;;;;13.06;79.78;98395.16;5092378;28;20036;-45
2024/04/03 09:36:42;;;;;;;5.28;2.53;;;;;;;13.15;80.40;98389.38;5092092;28;20447;-46
2024/04/03 09:39:09;;;;;;;11.25;2.08;;;;;;;13.35;77.66;98396.22;5091093;28;20028;-47
2024/04/03 09:41:36;;;;;;;6.88;1.95;;;;;;;13.56;76.77;98419.44;5091932;28;20486;-47
2024/04/03 09:44:04;;;;;;;10.90;4.25;;;;;;;13.65;78.60;98413.84;5091762;28;20028;-46
2024/04/03 09:46:51;;;;;;;7.85;1.70;;;;;;;13.68;78.04;98410.72;5091969;28;20070;-46
2024/04/03 09:49:23;;;;;;;9.52;6.68;;;;;;;13.58;79.30;98416.56;5091953;28;20047;-46
2024/04/03 09:51:50;;;;;;;23.63;21.42;;;;;;;13.49;82.61;98420.56;5091845;28;20529;-46
2024/04/03 09:54:17;;;;;;;11.40;6.50;;;;;;;13.27;80.20;98428.16;5090982;28;20093;-45
2024/04/03 09:56:43;;;;;;;11.43;7.47;;;;;;;13.12;85.54;98428.53;5091868;28;20016;-45
2024/04/03 09:59:10;;;;;;;5.70;3.00;;;;;;;13.13;87.75;98436.22;5091957;28;20024;-45
2024/04/03 10:01:36;;;;;;;22.88;17.42;;;;;;;13.31;87.39;98416.94;5073990;28;20024;-46
2024/04/03 10:04:05;;;;;;;76.45;67.97;;;;;;;13.57;89.38;98428.16;5091835;28;20027;-45
2024/04/03 10:06:43;;;;;;;15.60;12.07;;;;;;;13.83;87.76;98426.13;5091794;28;20520;-46
2024/04/03 10:09:26;;;;;;;54.25;48.85;;;;;;;14.03;86.22;98431.88;5091871;28;20111;-46
2024/04/03 10:11:56;;;;;;;11.88;10.50;;;;;;;14.17;82.31;98432.47;5091656;28;20024;-47
2024/04/03 10:14:29;;;;;;;11.38;7.28;;;;;;;14.33;80.80;98434.41;5091817;28;20482;-47
2024/04/03 10:16:55;;;;;;;10.98;7.05;;;;;;;14.53;76.83;98433.25;5091582;28;20409;-47
2024/04/03 10:19:22;;;;;;;83.03;74.05;;;;;;;14.78;78.30;98430.34;5091627;28;20027;-47
2024/04/03 10:21:48;;;;;;;323.67;287.95;;;;;;;15.07;79.49;98438.28;5091603;28;20099;-47
2024/04/03 10:24:14;;;;;;;725.70;647.58;;;;;;;15.27;73.69;98414.91;5091598;28;20020;-47
2024/04/03 10:26:40;;;;;;;297.40;265.02;;;;;;;15.53;76.63;98434.66;5091565;28;20024;-47
2024/04/03 10:29:06;;;;;;;139.35;122.97;;;;;;;15.76;73.36;98440.88;5091764;28;20537;-47
2024/04/03 10:31:31;;;;;;;45.88;32.30;;;;;;;16.08;71.18;98414.63;5090248;28;20052;-47
2024/04/03 10:33:57;;;;;;;17.67;12.68;;;;;;;16.24;67.04;98436.03;5090251;28;20024;-47
2024/04/03 10:36:23;;;;;;;27.60;22.20;;;;;;;16.34;66.92;98436.19;5091543;28;20020;-47
2024/04/03 10:38:49;;;;;;;18.95;13.82;;;;;;;16.55;66.56;98453.16;5091437;28;20169;-47
2024/04/03 10:41:14;;;;;;;11.65;8.02;;;;;;;16.89;63.15;98434.53;5091361;28;20056;-47
2024/04/03 10:43:40;;;;;;;7.75;4.18;;;;;;;17.06;61.20;98439.75;5091438;28;20023;-47
2024/04/03 10:46:11;;;;;;;9.82;6.00;;;;;;;17.15;60.38;98425.78;5091218;28;20048;-47
2024/04/03 10:48:40;;;;;;;13.00;7.07;;;;;;;17.24;59.68;98449.22;5090494;28;20120;-47
2024/04/03 10:51:07;;;;;;;8.05;5.05;;;;;;;17.28;60.15;98447.66;5094481;28;20070;-47
2024/04/03 10:53:36;;;;;;;7.20;4.78;;;;;;;17.52;58.41;98451.63;5095126;28;20414;-47
2024/04/03 10:56:03;;;;;;;4.32;2.63;;;;;;;17.73;56.55;98444.66;5076993;28;20035;-47
2024/04/03 10:58:29;;;;;;;23.50;20.48;;;;;;;17.80;57.86;98440.97;5094969;28;20085;-47
2024/04/03 11:00:55;;;;;;;6.38;4.57;;;;;;;17.92;55.96;98431.03;5094941;28;20032;-47
2024/04/03 11:03:22;;;;;;;6.43;2.22;;;;;;;18.15;54.22;98451.91;5094999;28;20035;-47
2024/04/03 11:05:50;;;;;;;5.63;3.08;;;;;;;18.37;55.36;98450.97;5094876;28;20070;-47
2024/04/03 11:08:16;;;;;;;8.80;3.00;;;;;;;18.66;54.15;98467.34;5095078;28;20121;-45
2024/04/03 11:10:42;;;;;;;7.03;1.85;;;;;;;18.96;54.86;98460.59;5093504;28;20513;-45
2024/04/03 11:13:14;;;;;;;5.32;2.10;;;;;;;18.99;51.50;98420.16;5094688;28;20036;-45
2024/04/03 11:15:40;;;;;;;7.65;1.90;;;;;;;18.53;51.30;98443.88;5094662;28;20016;-44
2024/04/03 11:18:06;;;;;;;2.22;1.40;;;;;;;18.05;52.16;98459.81;5094594;28;20027;-44
2024/04/03 11:20:34;;;;;;;2.67;1.10;;;;;;;17.63;53.80;98452.53;5094605;28;20024;-45
2024/04/03 11:23:01;;;;;;;10.02;1.92;;;;;;;17.71;55.16;98452.06;5094510;28;20103;-45
2024/04/03 11:25:28;;;;;;;4.78;1.30;;;;;;;17.76;53.63;98444.13;5094528;28;20398;-45
2024/04/03 11:27:56;;;;;;;5.70;1.60;;;;;;;17.65;53.31;98454.94;5094482;28;20393;-44
2024/04/03 11:30:22;;;;;;;8.48;2.20;;;;;;;17.64;53.79;98442.72;5093077;28;20035;-45
2024/04/03 11:32:48;;;;;;;5.32;1.40;;;;;;;17.57;53.71;98446.38;5093206;28;20020;-45
2024/04/03 11:35:13;;;;;;;3.00;1.08;;;;;;;17.72;53.34;98450.19;5094320;28;20031;-44